sensor_id;sensor_type;location;lat;lon;timestamp;temperature;humidity
20288;DHT22;10303;51.960;8.372;2024-01-10T00:02:06;-0.70;88.40
20288;DHT22;10303;51.960;8.372;2024-01-10T00:04:32;-0.90;88.50
20288;DHT22;10303;51.960;8.372;2024-01-10T00:06:58;-0.90;88.50
20288;DHT22;10303;51.960;8.372;2024-01-10T00:09:23;-0.90;88.50
20288;DHT22;10303;51.960;8.372;2024-01-10T00:11:49;-0.90;88.50
20288;DHT22;10303;51.960;8.372;2024-01-10T00:14:15;-0.90;88.60
20288;DHT22;10303;51.960;8.372;2024-01-10T00:16:42;-0.90;88.70
20288;DHT22;10303;51.960;8.372;2024-01-10T00:19:08;-0.90;88.70
20288;DHT22;10303;51.960;8.372;2024-01-10T00:21:33;-0.90;89.60
20288;DHT22;10303;51.960;8.372;2024-01-10T00:24:01;-1.00;88.90
20288;DHT22;10303;51.960;8.372;2024-01-10T00:26:27;-0.80;89.10
20288;DHT22;10303;51.960;8.372;2024-01-10T00:28:53;-1.00;89.00
20288;DHT22;10303;51.960;8.372;2024-01-10T00:31:19;-1.00;89.80
20288;DHT22;10303;51.960;8.372;2024-01-10T00:33:45;-1.00;89.80
20288;DHT22;10303;51.960;8.372;2024-01-10T00:36:11;-1.10;89.60
20288;DHT22;10303;51.960;8.372;2024-01-10T00:38:37;-1.10;89.70
20288;DHT22;10303;51.960;8.372;2024-01-10T00:41:03;-1.10;90.30
20288;DHT22;10303;51.960;8.372;2024-01-10T00:43:29;-1.10;89.80
20288;DHT22;10303;51.960;8.372;2024-01-10T00:45:54;-1.10;90.10
20288;DHT22;10303;51.960;8.372;2024-01-10T00:48:20;-1.10;90.30
20288;DHT22;10303;51.960;8.372;2024-01-10T00:50:46;-1.10;90.10
20288;DHT22;10303;51.960;8.372;2024-01-10T00:53:12;-1.10;90.00
20288;DHT22;10303;51.960;8.372;2024-01-10T00:55:38;-1.10;90.00
20288;DHT22;10303;51.960;8.372;2024-01-10T00:58:04;-1.10;90.00
20288;DHT22;10303;51.960;8.372;2024-01-10T01:00:31;-1.20;90.00
20288;DHT22;10303;51.960;8.372;2024-01-10T01:02:57;-1.20;90.10
20288;DHT22;10303;51.960;8.372;2024-01-10T01:05:23;-1.20;90.50
20288;DHT22;10303;51.960;8.372;2024-01-10T01:07:49;-1.20;90.10
20288;DHT22;10303;51.960;8.372;2024-01-10T01:10:15;-1.20;90.60
20288;DHT22;10303;51.960;8.372;2024-01-10T01:12:42;-1.20;90.30
20288;DHT22;10303;51.960;8.372;2024-01-10T01:15:08;-1.20;90.30
20288;DHT22;10303;51.960;8.372;2024-01-10T01:17:33;-1.20;90.30
20288;DHT22;10303;51.960;8.372;2024-01-10T01:20:00;-1.20;90.30
20288;DHT22;10303;51.960;8.372;2024-01-10T01:22:26;-1.20;90.50
20288;DHT22;10303;51.960;8.372;2024-01-10T01:24:52;-1.20;90.60
20288;DHT22;10303;51.960;8.372;2024-01-10T01:27:17;-1.30;90.80
20288;DHT22;10303;51.960;8.372;2024-01-10T01:29:43;-1.20;90.80
20288;DHT22;10303;51.960;8.372;2024-01-10T01:32:10;-1.20;90.80
20288;DHT22;10303;51.960;8.372;2024-01-10T01:34:36;-1.20;90.90
20288;DHT22;10303;51.960;8.372;2024-01-10T01:37:01;-1.20;91.00
20288;DHT22;10303;51.960;8.372;2024-01-10T01:39:27;-1.30;90.90
20288;DHT22;10303;51.960;8.372;2024-01-10T01:41:53;-1.30;90.80
20288;DHT22;10303;51.960;8.372;2024-01-10T01:44:19;-1.30;90.90
20288;DHT22;10303;51.960;8.372;2024-01-10T01:46:46;-1.30;90.90
20288;DHT22;10303;51.960;8.372;2024-01-10T01:49:13;-1.30;91.20
20288;DHT22;10303;51.960;8.372;2024-01-10T01:51:40;-1.20;91.10
20288;DHT22;10303;51.960;8.372;2024-01-10T01:54:07;-1.30;91.20
20288;DHT22;10303;51.960;8.372;2024-01-10T01:56:37;-1.30;91.10
20288;DHT22;10303;51.960;8.372;2024-01-10T01:59:04;-1.40;91.10
20288;DHT22;10303;51.960;8.372;2024-01-10T02:01:31;-1.40;91.20
20288;DHT22;10303;51.960;8.372;2024-01-10T02:03:57;-1.40;91.40
20288;DHT22;10303;51.960;8.372;2024-01-10T02:06:23;-1.40;91.70
20288;DHT22;10303;51.960;8.372;2024-01-10T02:08:49;-1.40;91.60
20288;DHT22;10303;51.960;8.372;2024-01-10T02:11:15;-1.40;91.50
20288;DHT22;10303;51.960;8.372;2024-01-10T02:13:41;-1.40;91.60
20288;DHT22;10303;51.960;8.372;2024-01-10T02:16:07;-1.40;91.70
20288;DHT22;10303;51.960;8.372;2024-01-10T02:18:34;-1.50;91.80
20288;DHT22;10303;51.960;8.372;2024-01-10T02:21:01;-1.40;91.70
20288;DHT22;10303;51.960;8.372;2024-01-10T02:23:27;-1.40;91.90
20288;DHT22;10303;51.960;8.372;2024-01-10T02:25:53;-1.40;91.70
20288;DHT22;10303;51.960;8.372;2024-01-10T02:28:19;-1.40;91.80
20288;DHT22;10303;51.960;8.372;2024-01-10T02:30:45;-1.50;91.70
20288;DHT22;10303;51.960;8.372;2024-01-10T02:33:12;-1.50;91.60
20288;DHT22;10303;51.960;8.372;2024-01-10T02:35:38;-1.50;91.70
20288;DHT22;10303;51.960;8.372;2024-01-10T02:38:04;-1.50;91.70
20288;DHT22;10303;51.960;8.372;2024-01-10T02:40:31;-1.50;91.80
20288;DHT22;10303;51.960;8.372;2024-01-10T02:42:57;-1.50;92.00
20288;DHT22;10303;51.960;8.372;2024-01-10T02:45:23;-1.60;92.00
20288;DHT22;10303;51.960;8.372;2024-01-10T02:47:49;-1.60;91.90
20288;DHT22;10303;51.960;8.372;2024-01-10T02:50:14;-1.50;91.90
20288;DHT22;10303;51.960;8.372;2024-01-10T02:52:42;-1.50;92.00
20288;DHT22;10303;51.960;8.372;2024-01-10T02:55:08;-1.50;92.00
20288;DHT22;10303;51.960;8.372;2024-01-10T02:57:34;-1.60;92.10
20288;DHT22;10303;51.960;8.372;2024-01-10T03:00:00;-1.60;92.20
20288;DHT22;10303;51.960;8.372;2024-01-10T03:02:26;-1.60;92.20
20288;DHT22;10303;51.960;8.372;2024-01-10T03:04:52;-1.60;92.10
20288;DHT22;10303;51.960;8.372;2024-01-10T03:07:17;-1.60;92.20
20288;DHT22;10303;51.960;8.372;2024-01-10T03:09:43;-1.60;92.20
20288;DHT22;10303;51.960;8.372;2024-01-10T03:12:11;-1.60;92.20
20288;DHT22;10303;51.960;8.372;2024-01-10T03:14:37;-1.60;92.20
20288;DHT22;10303;51.960;8.372;2024-01-10T03:17:03;-1.60;92.60
20288;DHT22;10303;51.960;8.372;2024-01-10T03:19:29;-1.60;92.20
20288;DHT22;10303;51.960;8.372;2024-01-10T03:21:55;-1.60;92.20
20288;DHT22;10303;51.960;8.372;2024-01-10T03:24:21;-1.60;92.20
20288;DHT22;10303;51.960;8.372;2024-01-10T03:26:49;-1.60;92.30
20288;DHT22;10303;51.960;8.372;2024-01-10T03:29:15;-1.60;92.30
20288;DHT22;10303;51.960;8.372;2024-01-10T03:31:41;-1.70;92.20
20288;DHT22;10303;51.960;8.372;2024-01-10T03:34:07;-1.70;92.30
20288;DHT22;10303;51.960;8.372;2024-01-10T03:36:33;-1.70;92.30
20288;DHT22;10303;51.960;8.372;2024-01-10T03:38:59;-1.70;92.40
20288;DHT22;10303;51.960;8.372;2024-01-10T03:41:25;-1.70;92.30
20288;DHT22;10303;51.960;8.372;2024-01-10T03:43:51;-1.70;92.40
20288;DHT22;10303;51.960;8.372;2024-01-10T03:46:17;-1.50;92.50
20288;DHT22;10303;51.960;8.372;2024-01-10T03:48:43;-1.80;92.40
20288;DHT22;10303;51.960;8.372;2024-01-10T03:51:17;-1.80;92.40
20288;DHT22;10303;51.960;8.372;2024-01-10T03:53:44;-1.80;92.50
20288;DHT22;10303;51.960;8.372;2024-01-10T03:56:14;-1.80;92.50
20288;DHT22;10303;51.960;8.372;2024-01-10T03:58:40;-1.80;92.50
20288;DHT22;10303;51.960;8.372;2024-01-10T04:01:07;-1.80;92.50
20288;DHT22;10303;51.960;8.372;2024-01-10T04:03:34;-1.80;92.50
20288;DHT22;10303;51.960;8.372;2024-01-10T04:06:01;-1.90;92.50
20288;DHT22;10303;51.960;8.372;2024-01-10T04:08:28;-1.90;92.50
20288;DHT22;10303;51.960;8.372;2024-01-10T04:10:54;-1.90;92.60
20288;DHT22;10303;51.960;8.372;2024-01-10T04:13:20;-1.90;92.60
20288;DHT22;10303;51.960;8.372;2024-01-10T04:15:46;-1.90;92.60
20288;DHT22;10303;51.960;8.372;2024-01-10T04:18:12;-1.90;92.60
20288;DHT22;10303;51.960;8.372;2024-01-10T04:20:38;-1.90;92.70
20288;DHT22;10303;51.960;8.372;2024-01-10T04:23:04;-1.90;92.80
20288;DHT22;10303;51.960;8.372;2024-01-10T04:25:30;-1.90;92.80
20288;DHT22;10303;51.960;8.372;2024-01-10T04:27:56;-2.00;92.90
20288;DHT22;10303;51.960;8.372;2024-01-10T04:30:23;-2.00;92.80
20288;DHT22;10303;51.960;8.372;2024-01-10T04:32:49;-2.00;92.70
20288;DHT22;10303;51.960;8.372;2024-01-10T04:35:15;-1.80;92.90
20288;DHT22;10303;51.960;8.372;2024-01-10T04:37:41;-2.00;93.00
20288;DHT22;10303;51.960;8.372;2024-01-10T04:40:07;-2.00;93.10
20288;DHT22;10303;51.960;8.372;2024-01-10T04:42:34;-2.00;93.10
20288;DHT22;10303;51.960;8.372;2024-01-10T04:45:00;-2.00;93.20
20288;DHT22;10303;51.960;8.372;2024-01-10T04:47:30;-2.00;93.30
20288;DHT22;10303;51.960;8.372;2024-01-10T04:49:55;-2.00;93.40
20288;DHT22;10303;51.960;8.372;2024-01-10T04:52:21;-2.00;93.50
20288;DHT22;10303;51.960;8.372;2024-01-10T04:54:47;-2.00;93.60
20288;DHT22;10303;51.960;8.372;2024-01-10T04:57:13;-1.90;93.60
20288;DHT22;10303;51.960;8.372;2024-01-10T04:59:39;-1.90;93.70
20288;DHT22;10303;51.960;8.372;2024-01-10T05:02:05;-1.90;93.80
20288;DHT22;10303;51.960;8.372;2024-01-10T05:04:31;-1.90;94.10
20288;DHT22;10303;51.960;8.372;2024-01-10T05:06:56;-1.90;93.90
20288;DHT22;10303;51.960;8.372;2024-01-10T05:09:22;-1.80;93.90
20288;DHT22;10303;51.960;8.372;2024-01-10T05:11:48;-1.80;94.00
20288;DHT22;10303;51.960;8.372;2024-01-10T05:14:17;-1.80;94.00
20288;DHT22;10303;51.960;8.372;2024-01-10T05:16:46;-1.80;94.10
20288;DHT22;10303;51.960;8.372;2024-01-10T05:19:15;-1.80;94.00
20288;DHT22;10303;51.960;8.372;2024-01-10T05:21:42;-1.80;94.20
20288;DHT22;10303;51.960;8.372;2024-01-10T05:24:08;-1.80;94.10
20288;DHT22;10303;51.960;8.372;2024-01-10T05:26:34;-1.70;94.10
20288;DHT22;10303;51.960;8.372;2024-01-10T05:29:01;-1.70;94.00
20288;DHT22;10303;51.960;8.372;2024-01-10T05:31:27;-1.70;94.00
20288;DHT22;10303;51.960;8.372;2024-01-10T05:33:53;-1.60;93.90
20288;DHT22;10303;51.960;8.372;2024-01-10T05:36:22;-1.60;93.90
20288;DHT22;10303;51.960;8.372;2024-01-10T05:38:49;-1.60;93.90
20288;DHT22;10303;51.960;8.372;2024-01-10T05:41:15;-1.60;93.80
20288;DHT22;10303;51.960;8.372;2024-01-10T05:43:41;-1.60;93.80
20288;DHT22;10303;51.960;8.372;2024-01-10T05:46:07;-1.60;93.80
20288;DHT22;10303;51.960;8.372;2024-01-10T05:48:33;-1.60;93.70
20288;DHT22;10303;51.960;8.372;2024-01-10T05:50:59;-1.60;93.70
20288;DHT22;10303;51.960;8.372;2024-01-10T05:53:25;-1.60;93.60
20288;DHT22;10303;51.960;8.372;2024-01-10T05:55:50;-1.60;93.60
20288;DHT22;10303;51.960;8.372;2024-01-10T05:58:16;-1.60;93.70
20288;DHT22;10303;51.960;8.372;2024-01-10T06:00:42;-1.60;93.60
20288;DHT22;10303;51.960;8.372;2024-01-10T06:03:08;-1.60;93.60
20288;DHT22;10303;51.960;8.372;2024-01-10T06:05:34;-1.60;93.50
20288;DHT22;10303;51.960;8.372;2024-01-10T06:08:00;-1.60;93.50
20288;DHT22;10303;51.960;8.372;2024-01-10T06:10:29;-1.60;93.60
20288;DHT22;10303;51.960;8.372;2024-01-10T06:12:55;-1.60;93.60
20288;DHT22;10303;51.960;8.372;2024-01-10T06:15:22;-1.60;93.50
20288;DHT22;10303;51.960;8.372;2024-01-10T06:17:48;-1.70;93.60
20288;DHT22;10303;51.960;8.372;2024-01-10T06:20:15;-1.70;93.80
20288;DHT22;10303;51.960;8.372;2024-01-10T06:22:41;-1.70;93.60
20288;DHT22;10303;51.960;8.372;2024-01-10T06:25:07;-1.70;93.70
20288;DHT22;10303;51.960;8.372;2024-01-10T06:27:33;-1.80;93.70
20288;DHT22;10303;51.960;8.372;2024-01-10T06:29:59;-1.80;93.70
20288;DHT22;10303;51.960;8.372;2024-01-10T06:32:25;-1.80;93.70
20288;DHT22;10303;51.960;8.372;2024-01-10T06:34:51;-1.80;93.90
20288;DHT22;10303;51.960;8.372;2024-01-10T06:37:18;-1.90;93.60
20288;DHT22;10303;51.960;8.372;2024-01-10T06:39:44;-1.90;93.60
20288;DHT22;10303;51.960;8.372;2024-01-10T06:42:11;-1.90;93.50
20288;DHT22;10303;51.960;8.372;2024-01-10T06:44:37;-1.90;93.50
20288;DHT22;10303;51.960;8.372;2024-01-10T06:47:03;-1.90;93.90
20288;DHT22;10303;51.960;8.372;2024-01-10T06:49:29;-1.90;93.60
20288;DHT22;10303;51.960;8.372;2024-01-10T06:51:55;-2.00;93.50
20288;DHT22;10303;51.960;8.372;2024-01-10T06:54:21;-2.00;93.50
20288;DHT22;10303;51.960;8.372;2024-01-10T06:56:47;-2.00;93.50
20288;DHT22;10303;51.960;8.372;2024-01-10T06:59:13;-2.10;93.50
20288;DHT22;10303;51.960;8.372;2024-01-10T07:01:39;-2.10;93.50
20288;DHT22;10303;51.960;8.372;2024-01-10T07:04:05;-2.10;93.50
20288;DHT22;10303;51.960;8.372;2024-01-10T07:06:31;-2.10;93.50
20288;DHT22;10303;51.960;8.372;2024-01-10T07:08:57;-2.20;93.50
20288;DHT22;10303;51.960;8.372;2024-01-10T07:11:24;-2.20;93.50
20288;DHT22;10303;51.960;8.372;2024-01-10T07:13:50;-2.20;93.50
20288;DHT22;10303;51.960;8.372;2024-01-10T07:16:16;-2.20;93.50
20288;DHT22;10303;51.960;8.372;2024-01-10T07:18:42;-2.30;93.50
20288;DHT22;10303;51.960;8.372;2024-01-10T07:21:10;-2.30;93.50
20288;DHT22;10303;51.960;8.372;2024-01-10T07:23:36;-2.30;93.50
20288;DHT22;10303;51.960;8.372;2024-01-10T07:26:06;-2.30;94.00
20288;DHT22;10303;51.960;8.372;2024-01-10T07:28:32;-2.30;93.80
20288;DHT22;10303;51.960;8.372;2024-01-10T07:30:58;-2.30;93.80
20288;DHT22;10303;51.960;8.372;2024-01-10T07:33:24;-2.40;93.80
20288;DHT22;10303;51.960;8.372;2024-01-10T07:35:50;-2.40;93.80
20288;DHT22;10303;51.960;8.372;2024-01-10T07:38:16;-2.40;93.80
20288;DHT22;10303;51.960;8.372;2024-01-10T07:40:41;-2.40;93.80
20288;DHT22;10303;51.960;8.372;2024-01-10T07:43:07;-2.40;93.90
20288;DHT22;10303;51.960;8.372;2024-01-10T07:45:33;-2.40;93.90
20288;DHT22;10303;51.960;8.372;2024-01-10T07:47:59;-2.40;94.30
20288;DHT22;10303;51.960;8.372;2024-01-10T07:50:25;-2.50;94.00
20288;DHT22;10303;51.960;8.372;2024-01-10T07:52:53;-2.50;94.10
20288;DHT22;10303;51.960;8.372;2024-01-10T07:55:19;-2.40;94.20
20288;DHT22;10303;51.960;8.372;2024-01-10T07:57:45;-2.40;94.30
20288;DHT22;10303;51.960;8.372;2024-01-10T08:00:12;-2.40;94.30
20288;DHT22;10303;51.960;8.372;2024-01-10T08:02:39;-2.50;94.30
20288;DHT22;10303;51.960;8.372;2024-01-10T08:05:06;-2.40;94.50
20288;DHT22;10303;51.960;8.372;2024-01-10T08:07:38;-2.40;94.50
20288;DHT22;10303;51.960;8.372;2024-01-10T08:10:09;-2.40;95.00
20288;DHT22;10303;51.960;8.372;2024-01-10T08:12:39;-2.50;94.60
20288;DHT22;10303;51.960;8.372;2024-01-10T08:15:07;-2.40;94.80
20288;DHT22;10303;51.960;8.372;2024-01-10T08:17:33;-2.40;94.80
20288;DHT22;10303;51.960;8.372;2024-01-10T08:20:00;-2.50;94.80
20288;DHT22;10303;51.960;8.372;2024-01-10T08:22:26;-2.40;94.90
20288;DHT22;10303;51.960;8.372;2024-01-10T08:24:52;-2.40;95.00
20288;DHT22;10303;51.960;8.372;2024-01-10T08:27:18;-2.40;95.20
20288;DHT22;10303;51.960;8.372;2024-01-10T08:29:44;-2.40;95.20
20288;DHT22;10303;51.960;8.372;2024-01-10T08:32:10;-2.30;95.40
20288;DHT22;10303;51.960;8.372;2024-01-10T08:34:36;-2.30;95.50
20288;DHT22;10303;51.960;8.372;2024-01-10T08:37:02;-2.30;95.60
20288;DHT22;10303;51.960;8.372;2024-01-10T08:39:29;-2.20;95.70
20288;DHT22;10303;51.960;8.372;2024-01-10T08:41:57;-2.20;95.80
20288;DHT22;10303;51.960;8.372;2024-01-10T08:44:23;-2.10;96.00
20288;DHT22;10303;51.960;8.372;2024-01-10T08:46:49;-2.10;96.00
20288;DHT22;10303;51.960;8.372;2024-01-10T08:49:17;-2.00;96.00
20288;DHT22;10303;51.960;8.372;2024-01-10T08:51:43;-2.00;96.00
20288;DHT22;10303;51.960;8.372;2024-01-10T08:54:10;-2.00;96.10
20288;DHT22;10303;51.960;8.372;2024-01-10T08:56:38;-1.90;96.10
20288;DHT22;10303;51.960;8.372;2024-01-10T08:59:04;-1.90;96.20
20288;DHT22;10303;51.960;8.372;2024-01-10T09:01:30;-1.80;96.30
20288;DHT22;10303;51.960;8.372;2024-01-10T09:03:56;-1.80;96.30
20288;DHT22;10303;51.960;8.372;2024-01-10T09:06:22;-1.70;96.40
20288;DHT22;10303;51.960;8.372;2024-01-10T09:08:48;-1.70;96.50
20288;DHT22;10303;51.960;8.372;2024-01-10T09:11:13;-1.60;96.70
20288;DHT22;10303;51.960;8.372;2024-01-10T09:13:39;-1.50;97.60
20288;DHT22;10303;51.960;8.372;2024-01-10T09:16:06;-1.30;99.60
20288;DHT22;10303;51.960;8.372;2024-01-10T09:18:32;-1.00;99.90
20288;DHT22;10303;51.960;8.372;2024-01-10T09:20:58;-0.60;99.90
20288;DHT22;10303;51.960;8.372;2024-01-10T09:23:26;-0.20;99.90
20288;DHT22;10303;51.960;8.372;2024-01-10T09:25:53;0.30;99.90
20288;DHT22;10303;51.960;8.372;2024-01-10T09:28:19;1.00;99.90
20288;DHT22;10303;51.960;8.372;2024-01-10T09:30:45;1.40;99.90
20288;DHT22;10303;51.960;8.372;2024-01-10T09:33:11;2.00;99.90
20288;DHT22;10303;51.960;8.372;2024-01-10T09:35:37;2.50;99.90
20288;DHT22;10303;51.960;8.372;2024-01-10T09:38:03;3.00;99.90
20288;DHT22;10303;51.960;8.372;2024-01-10T09:40:29;3.40;99.90
20288;DHT22;10303;51.960;8.372;2024-01-10T09:42:55;3.80;99.90
20288;DHT22;10303;51.960;8.372;2024-01-10T09:45:22;4.40;99.90
20288;DHT22;10303;51.960;8.372;2024-01-10T09:47:53;4.40;99.90
20288;DHT22;10303;51.960;8.372;2024-01-10T09:50:21;4.60;99.90
20288;DHT22;10303;51.960;8.372;2024-01-10T09:52:53;4.80;99.90
20288;DHT22;10303;51.960;8.372;2024-01-10T09:55:22;5.10;99.90
20288;DHT22;10303;51.960;8.372;2024-01-10T09:57:51;5.00;99.90
20288;DHT22;10303;51.960;8.372;2024-01-10T10:00:17;5.10;99.90
20288;DHT22;10303;51.960;8.372;2024-01-10T10:02:46;5.30;99.90
20288;DHT22;10303;51.960;8.372;2024-01-10T10:05:16;5.40;98.60
20288;DHT22;10303;51.960;8.372;2024-01-10T10:10:10;5.40;96.40
20288;DHT22;10303;51.960;8.372;2024-01-10T10:12:52;5.40;95.60
20288;DHT22;10303;51.960;8.372;2024-01-10T10:15:20;5.40;95.30
20288;DHT22;10303;51.960;8.372;2024-01-10T10:17:53;5.50;94.80
20288;DHT22;10303;51.960;8.372;2024-01-10T10:20:21;5.40;94.40
20288;DHT22;10303;51.960;8.372;2024-01-10T10:25:37;5.40;93.20
20288;DHT22;10303;51.960;8.372;2024-01-10T10:28:08;5.50;92.50
20288;DHT22;10303;51.960;8.372;2024-01-10T10:30:34;5.50;92.00
20288;DHT22;10303;51.960;8.372;2024-01-10T10:33:05;5.50;91.50
20288;DHT22;10303;51.960;8.372;2024-01-10T10:35:34;5.40;91.20
20288;DHT22;10303;51.960;8.372;2024-01-10T10:38:00;5.40;91.70
20288;DHT22;10303;51.960;8.372;2024-01-10T10:40:26;5.40;91.40
20288;DHT22;10303;51.960;8.372;2024-01-10T10:42:55;5.40;91.00
20288;DHT22;10303;51.960;8.372;2024-01-10T10:45:22;5.50;90.60
20288;DHT22;10303;51.960;8.372;2024-01-10T10:48:00;5.50;91.10
20288;DHT22;10303;51.960;8.372;2024-01-10T10:50:34;5.60;91.10
20288;DHT22;10303;51.960;8.372;2024-01-10T10:53:03;5.60;91.20
20288;DHT22;10303;51.960;8.372;2024-01-10T10:55:29;5.80;90.90
20288;DHT22;10303;51.960;8.372;2024-01-10T10:57:57;5.80;91.50
20288;DHT22;10303;51.960;8.372;2024-01-10T11:00:24;5.90;90.40
20288;DHT22;10303;51.960;8.372;2024-01-10T11:02:56;5.90;91.00
20288;DHT22;10303;51.960;8.372;2024-01-10T11:05:25;6.00;90.50
20288;DHT22;10303;51.960;8.372;2024-01-10T11:07:51;6.10;90.10
20288;DHT22;10303;51.960;8.372;2024-01-10T11:10:26;6.20;90.50
20288;DHT22;10303;51.960;8.372;2024-01-10T11:25:42;7.50;91.80
20288;DHT22;10303;51.960;8.372;2024-01-10T11:28:12;7.80;92.20
20288;DHT22;10303;51.960;8.372;2024-01-10T11:30:49;8.10;92.10
20288;DHT22;10303;51.960;8.372;2024-01-10T11:33:34;8.40;91.30
20288;DHT22;10303;51.960;8.372;2024-01-10T11:36:19;8.70;88.40
20288;DHT22;10303;51.960;8.372;2024-01-10T11:41:34;9.10;87.20
20288;DHT22;10303;51.960;8.372;2024-01-10T11:46:42;9.40;86.30
20288;DHT22;10303;51.960;8.372;2024-01-10T11:49:09;9.60;83.80
20288;DHT22;10303;51.960;8.372;2024-01-10T11:51:40;9.70;83.90
20288;DHT22;10303;51.960;8.372;2024-01-10T11:54:08;9.80;85.00
20288;DHT22;10303;51.960;8.372;2024-01-10T11:56:41;10.00;85.90
20288;DHT22;10303;51.960;8.372;2024-01-10T11:59:13;10.20;84.00
20288;DHT22;10303;51.960;8.372;2024-01-10T12:01:42;10.30;82.30
20288;DHT22;10303;51.960;8.372;2024-01-10T12:04:08;10.40;83.20
20288;DHT22;10303;51.960;8.372;2024-01-10T12:06:37;10.60;83.60
20288;DHT22;10303;51.960;8.372;2024-01-10T12:09:04;10.70;83.10
20288;DHT22;10303;51.960;8.372;2024-01-10T12:11:41;10.90;82.80
20288;DHT22;10303;51.960;8.372;2024-01-10T12:14:08;11.00;81.40
20288;DHT22;10303;51.960;8.372;2024-01-10T12:16:35;11.20;78.80
20288;DHT22;10303;51.960;8.372;2024-01-10T12:19:01;11.30;80.00
20288;DHT22;10303;51.960;8.372;2024-01-10T12:21:27;11.40;80.00
20288;DHT22;10303;51.960;8.372;2024-01-10T12:23:53;11.50;79.00
20288;DHT22;10303;51.960;8.372;2024-01-10T12:26:19;11.50;75.90
20288;DHT22;10303;51.960;8.372;2024-01-10T12:28:58;11.70;74.20
20288;DHT22;10303;51.960;8.372;2024-01-10T12:31:29;11.80;74.50
20288;DHT22;10303;51.960;8.372;2024-01-10T12:33:56;11.80;74.60
20288;DHT22;10303;51.960;8.372;2024-01-10T12:36:22;11.80;74.40
20288;DHT22;10303;51.960;8.372;2024-01-10T12:38:49;11.90;72.70
20288;DHT22;10303;51.960;8.372;2024-01-10T12:41:17;12.00;72.10
20288;DHT22;10303;51.960;8.372;2024-01-10T12:43:49;12.00;71.50
20288;DHT22;10303;51.960;8.372;2024-01-10T12:46:17;12.10;70.70
20288;DHT22;10303;51.960;8.372;2024-01-10T12:48:43;12.20;72.30
20288;DHT22;10303;51.960;8.372;2024-01-10T12:51:11;12.30;72.10
20288;DHT22;10303;51.960;8.372;2024-01-10T12:53:40;12.30;71.80
20288;DHT22;10303;51.960;8.372;2024-01-10T12:56:10;12.40;73.30
20288;DHT22;10303;51.960;8.372;2024-01-10T12:58:41;12.40;72.40
20288;DHT22;10303;51.960;8.372;2024-01-10T13:01:11;12.50;72.40
20288;DHT22;10303;51.960;8.372;2024-01-10T13:03:38;12.50;70.00
20288;DHT22;10303;51.960;8.372;2024-01-10T13:06:05;12.60;72.10
20288;DHT22;10303;51.960;8.372;2024-01-10T13:08:31;12.70;71.50
20288;DHT22;10303;51.960;8.372;2024-01-10T13:10:58;12.70;70.20
20288;DHT22;10303;51.960;8.372;2024-01-10T13:13:26;12.80;69.70
20288;DHT22;10303;51.960;8.372;2024-01-10T13:15:52;12.80;70.20
20288;DHT22;10303;51.960;8.372;2024-01-10T13:18:18;12.90;69.40
20288;DHT22;10303;51.960;8.372;2024-01-10T13:20:44;12.90;68.90
20288;DHT22;10303;51.960;8.372;2024-01-10T13:23:11;12.80;68.50
20288;DHT22;10303;51.960;8.372;2024-01-10T13:25:37;12.70;66.60
20288;DHT22;10303;51.960;8.372;2024-01-10T13:28:04;12.60;66.50
20288;DHT22;10303;51.960;8.372;2024-01-10T13:30:30;12.50;66.10
20288;DHT22;10303;51.960;8.372;2024-01-10T13:32:57;12.40;65.50
20288;DHT22;10303;51.960;8.372;2024-01-10T13:35:24;12.30;64.90
20288;DHT22;10303;51.960;8.372;2024-01-10T13:37:50;12.20;64.70
20288;DHT22;10303;51.960;8.372;2024-01-10T13:40:16;12.10;64.80
20288;DHT22;10303;51.960;8.372;2024-01-10T13:42:43;11.90;64.70
20288;DHT22;10303;51.960;8.372;2024-01-10T13:45:10;11.70;64.00
20288;DHT22;10303;51.960;8.372;2024-01-10T13:47:37;11.50;64.10
20288;DHT22;10303;51.960;8.372;2024-01-10T13:50:04;11.30;62.90
20288;DHT22;10303;51.960;8.372;2024-01-10T13:52:32;11.10;63.70
20288;DHT22;10303;51.960;8.372;2024-01-10T13:54:59;10.90;63.30
20288;DHT22;10303;51.960;8.372;2024-01-10T13:57:25;10.70;63.00
20288;DHT22;10303;51.960;8.372;2024-01-10T13:59:52;10.50;63.60
20288;DHT22;10303;51.960;8.372;2024-01-10T14:02:24;10.20;63.90
20288;DHT22;10303;51.960;8.372;2024-01-10T14:04:50;10.00;63.80
20288;DHT22;10303;51.960;8.372;2024-01-10T14:07:19;9.80;63.70
20288;DHT22;10303;51.960;8.372;2024-01-10T14:09:45;9.60;63.90
20288;DHT22;10303;51.960;8.372;2024-01-10T14:12:11;9.50;64.60
20288;DHT22;10303;51.960;8.372;2024-01-10T14:14:38;9.30;65.10
20288;DHT22;10303;51.960;8.372;2024-01-10T14:17:04;9.10;65.00
20288;DHT22;10303;51.960;8.372;2024-01-10T14:19:31;9.00;65.20
20288;DHT22;10303;51.960;8.372;2024-01-10T14:21:58;8.80;65.30
20288;DHT22;10303;51.960;8.372;2024-01-10T14:24:24;8.70;65.80
20288;DHT22;10303;51.960;8.372;2024-01-10T14:26:50;8.50;65.90
20288;DHT22;10303;51.960;8.372;2024-01-10T14:29:16;8.40;66.20
20288;DHT22;10303;51.960;8.372;2024-01-10T14:31:42;8.30;66.40
20288;DHT22;10303;51.960;8.372;2024-01-10T14:34:08;8.20;66.90
20288;DHT22;10303;51.960;8.372;2024-01-10T14:36:37;8.10;67.10
20288;DHT22;10303;51.960;8.372;2024-01-10T14:39:03;8.00;67.10
20288;DHT22;10303;51.960;8.372;2024-01-10T14:41:33;7.90;67.60
20288;DHT22;10303;51.960;8.372;2024-01-10T14:44:00;7.90;67.80
20288;DHT22;10303;51.960;8.372;2024-01-10T14:46:26;7.80;67.80
20288;DHT22;10303;51.960;8.372;2024-01-10T14:48:54;7.70;68.00
20288;DHT22;10303;51.960;8.372;2024-01-10T14:51:20;7.60;68.10
20288;DHT22;10303;51.960;8.372;2024-01-10T14:53:46;7.50;68.00
20288;DHT22;10303;51.960;8.372;2024-01-10T14:56:12;7.50;68.20
20288;DHT22;10303;51.960;8.372;2024-01-10T14:58:39;7.40;68.00
20288;DHT22;10303;51.960;8.372;2024-01-10T15:01:11;7.30;67.90
20288;DHT22;10303;51.960;8.372;2024-01-10T15:03:38;7.10;68.00
20288;DHT22;10303;51.960;8.372;2024-01-10T15:06:05;7.00;68.00
20288;DHT22;10303;51.960;8.372;2024-01-10T15:08:31;6.90;68.10
20288;DHT22;10303;51.960;8.372;2024-01-10T15:11:00;6.80;68.20
20288;DHT22;10303;51.960;8.372;2024-01-10T15:13:26;6.70;68.30
20288;DHT22;10303;51.960;8.372;2024-01-10T15:15:53;6.60;68.40
20288;DHT22;10303;51.960;8.372;2024-01-10T15:18:19;6.40;68.40
20288;DHT22;10303;51.960;8.372;2024-01-10T15:20:46;6.30;68.60
20288;DHT22;10303;51.960;8.372;2024-01-10T15:23:13;6.20;68.50
20288;DHT22;10303;51.960;8.372;2024-01-10T15:25:39;6.10;68.80
20288;DHT22;10303;51.960;8.372;2024-01-10T15:28:05;6.00;68.90
20288;DHT22;10303;51.960;8.372;2024-01-10T15:30:32;5.80;69.00
20288;DHT22;10303;51.960;8.372;2024-01-10T15:32:58;5.70;69.20
20288;DHT22;10303;51.960;8.372;2024-01-10T15:35:25;5.60;69.40
20288;DHT22;10303;51.960;8.372;2024-01-10T15:37:52;5.50;69.40
20288;DHT22;10303;51.960;8.372;2024-01-10T15:40:19;5.40;69.50
20288;DHT22;10303;51.960;8.372;2024-01-10T15:42:45;5.30;69.80
20288;DHT22;10303;51.960;8.372;2024-01-10T15:45:12;5.30;69.90
20288;DHT22;10303;51.960;8.372;2024-01-10T15:47:40;5.10;70.00
20288;DHT22;10303;51.960;8.372;2024-01-10T15:50:07;5.00;70.30
20288;DHT22;10303;51.960;8.372;2024-01-10T15:52:35;4.90;70.30
20288;DHT22;10303;51.960;8.372;2024-01-10T15:55:04;4.80;70.50
20288;DHT22;10303;51.960;8.372;2024-01-10T15:57:30;4.70;70.70